Time;durP1;ratioP1;P1;durP2;ratioP2;P2;SDS_P1;SDS_P2;PMS_P1;PMS_P2;Temp;Humidity;BMP_temperature;BMP_pressure;BME280_temperature;BME280_humidity;BME280_pressure;Samples;Min_cycle;Max_cycle;Signal;HPM_P1;HPM_P2
2022/07/17 00:00:18;;;;;;;3.35;1.40;;;;;;;15.01;60.34;102606.25;5053658;28;20491;-73
2022/07/17 00:02:43;;;;;;;3.20;1.50;;;;;;;14.99;61.07;102601.91;5063815;28;20036;-74
2022/07/17 00:05:09;;;;;;;4.85;1.42;;;;;;;14.95;60.55;102606.34;5057623;28;20029;-73
2022/07/17 00:07:34;;;;;;;3.50;1.50;;;;;;;14.93;62.00;102602.03;5025460;28;20036;-74
2022/07/17 00:10:00;;;;;;;3.28;1.63;;;;;;;14.93;60.53;102605.50;5054121;28;20166;-74
2022/07/17 00:12:25;;;;;;;3.90;1.42;;;;;;;14.89;61.20;102595.94;5057400;28;20037;-73
2022/07/17 00:14:50;;;;;;;4.93;1.70;;;;;;;14.84;60.77;102597.81;5053382;28;20479;-73
2022/07/17 00:17:16;;;;;;;2.97;1.77;;;;;;;14.85;59.88;102596.91;5053956;28;20048;-74
2022/07/17 00:19:42;;;;;;;5.68;1.70;;;;;;;14.80;59.89;102596.97;5057065;28;20039;-73
2022/07/17 00:22:08;;;;;;;3.25;1.70;;;;;;;14.77;60.14;102598.78;5057419;28;20024;-73
2022/07/17 00:24:33;;;;;;;7.07;1.88;;;;;;;14.72;59.89;102597.06;5055761;28;20455;-73
2022/07/17 00:26:59;;;;;;;5.93;1.80;;;;;;;14.70;60.07;102596.22;5054884;28;20056;-73
2022/07/17 00:29:24;;;;;;;4.22;2.05;;;;;;;14.65;60.43;102591.91;5053380;28;20036;-73
2022/07/17 00:31:49;;;;;;;4.72;1.90;;;;;;;14.63;60.24;102591.97;5054225;28;20029;-73
2022/07/17 00:34:15;;;;;;;4.20;1.90;;;;;;;14.56;60.51;102595.53;5051213;28;20033;-74
2022/07/17 00:36:40;;;;;;;3.28;1.80;;;;;;;14.49;61.40;102597.38;5060113;28;20073;-73
2022/07/17 00:39:05;;;;;;;9.45;2.03;;;;;;;14.42;61.19;102604.47;5054586;28;20090;-73
2022/07/17 00:41:30;;;;;;;4.10;2.13;;;;;;;14.39;61.71;102594.03;5057547;28;20072;-73
2022/07/17 00:44:06;;;;;;;3.70;1.83;;;;;;;14.36;62.12;102599.31;5054109;28;20039;-73
2022/07/17 00:46:32;;;;;;;4.38;1.90;;;;;;;14.34;63.37;102598.47;5059829;28;20039;-73
2022/07/17 00:48:57;;;;;;;4.47;1.92;;;;;;;14.31;63.67;102603.75;5054800;28;20116;-73
2022/07/17 00:51:23;;;;;;;5.35;1.80;;;;;;;14.28;63.59;102603.78;5063158;28;20024;-73
2022/07/17 00:53:50;;;;;;;3.95;1.98;;;;;;;14.24;63.24;102599.47;5055259;28;20086;-73
2022/07/17 00:56:17;;;;;;;4.35;2.00;;;;;;;14.22;62.59;102609.09;5061167;28;20052;-73
2022/07/17 00:58:44;;;;;;;3.90;2.10;;;;;;;14.19;62.31;102599.53;5060434;28;20050;-73
2022/07/17 01:01:10;;;;;;;5.03;2.17;;;;;;;14.19;62.53;102601.28;5059248;28;20075;-73
2022/07/17 01:03:35;;;;;;;4.05;2.13;;;;;;;14.18;62.27;102599.53;5057661;28;20078;-73
2022/07/17 01:06:01;;;;;;;3.10;2.00;;;;;;;14.17;62.09;102595.22;5062659;28;20047;-73
2022/07/17 01:08:27;;;;;;;4.90;2.20;;;;;;;14.15;61.86;102597.84;5058271;28;20057;-73
2022/07/17 01:10:52;;;;;;;4.68;2.40;;;;;;;14.13;61.51;102593.50;5055464;28;20133;-73
2022/07/17 01:13:18;;;;;;;5.32;2.22;;;;;;;14.11;61.46;102591.78;5054361;28;20029;-73
2022/07/17 01:15:44;;;;;;;4.95;2.15;;;;;;;14.07;62.59;102589.22;5050075;28;20035;-73
2022/07/17 01:18:11;;;;;;;5.90;2.45;;;;;;;14.01;63.09;102587.53;5059330;28;20190;-73
2022/07/17 01:20:38;;;;;;;4.97;2.17;;;;;;;13.96;63.10;102587.59;5058937;28;20021;-74
2022/07/17 01:23:04;;;;;;;5.53;2.28;;;;;;;13.93;62.30;102581.53;5041874;28;20047;-72
2022/07/17 01:25:30;;;;;;;3.92;2.20;;;;;;;13.92;62.40;102579.81;5055520;28;20033;-73
2022/07/17 01:27:56;;;;;;;4.35;2.55;;;;;;;13.93;62.50;102581.53;5060869;28;20093;-73
2022/07/17 01:30:21;;;;;;;5.50;2.53;;;;;;;13.90;62.53;102584.19;5059958;28;20040;-73
2022/07/17 01:32:47;;;;;;;4.72;2.90;;;;;;;13.87;63.29;102581.59;5056203;28;20043;-73
2022/07/17 01:35:14;;;;;;;7.80;3.05;;;;;;;13.80;63.76;102586.91;5056993;28;20484;-73
2022/07/17 01:37:41;;;;;;;8.75;2.72;;;;;;;13.78;64.00;102582.56;5059800;28;20056;-73
2022/07/17 01:40:09;;;;;;;4.95;2.72;;;;;;;13.74;63.77;102591.34;5056251;28;20250;-73
2022/07/17 01:42:35;;;;;;;6.70;2.88;;;;;;;13.69;63.90;102593.16;5055456;28;20093;-73
2022/07/17 01:45:01;;;;;;;8.63;2.78;;;;;;;13.66;63.67;102591.44;5052154;28;20052;-73
2022/07/17 01:47:26;;;;;;;6.00;2.55;;;;;;;13.64;63.42;102590.59;5054529;28;20020;-73
2022/07/17 01:49:54;;;;;;;6.07;2.72;;;;;;;13.62;63.08;102584.50;5057539;28;20036;-73
2022/07/17 01:52:21;;;;;;;5.90;2.47;;;;;;;13.57;63.74;102591.50;5056764;28;20048;-73
2022/07/17 01:54:47;;;;;;;6.65;3.10;;;;;;;13.51;64.13;102585.47;5058169;28;20033;-73
2022/07/17 01:57:12;;;;;;;3.95;2.30;;;;;;;13.48;63.68;102580.28;5055828;28;20135;-73
2022/07/17 01:59:39;;;;;;;5.30;2.55;;;;;;;13.45;64.50;102585.53;5038310;28;20122;-73
2022/07/17 02:02:05;;;;;;;7.32;2.40;;;;;;;13.38;64.86;102578.59;5038424;28;20024;-73
2022/07/17 02:04:35;;;;;;;5.22;2.22;;;;;;;13.34;65.58;102587.34;5058104;28;20043;-73
2022/07/17 02:07:00;;;;;;;5.25;2.20;;;;;;;13.31;65.66;102587.38;5052449;28;20385;-73
2022/07/17 02:09:25;;;;;;;5.18;2.03;;;;;;;13.28;65.82;102592.63;5055482;28;20503;-73
2022/07/17 02:11:51;;;;;;;3.80;2.30;;;;;;;13.21;65.72;102590.06;5058535;28;20024;-73
2022/07/17 02:14:16;;;;;;;5.75;2.17;;;;;;;13.19;65.80;102593.59;5054839;28;20111;-73
2022/07/17 02:16:42;;;;;;;3.83;2.00;;;;;;;13.17;66.35;102596.19;5053416;28;20035;-73
2022/07/17 02:19:07;;;;;;;6.18;1.90;;;;;;;13.17;66.03;102590.97;5053372;28;20117;-73
2022/07/17 02:21:32;;;;;;;3.88;1.95;;;;;;;13.18;64.62;102584.84;5055356;28;20043;-73
2022/07/17 02:23:58;;;;;;;7.65;2.30;;;;;;;13.19;65.06;102590.97;5052539;28;20064;-73
2022/07/17 02:26:23;;;;;;;5.95;2.38;;;;;;;13.15;66.07;102597.94;5052746;28;20551;-73
2022/07/17 02:28:48;;;;;;;3.83;2.38;;;;;;;13.13;66.01;102594.50;5053883;28;20024;-73
2022/07/17 02:31:14;;;;;;;4.20;2.20;;;;;;;13.12;66.69;102599.72;5050827;28;20041;-73
2022/07/17 02:33:39;;;;;;;4.10;1.98;;;;;;;13.11;66.88;102595.38;5055518;28;20021;-73
2022/07/17 02:36:05;;;;;;;2.97;1.92;;;;;;;13.03;65.19;102588.50;5053421;28;20016;-73
2022/07/17 02:38:30;;;;;;;6.78;2.10;;;;;;;12.99;65.80;102591.13;5057016;28;20020;-73
2022/07/17 02:40:55;;;;;;;4.88;2.05;;;;;;;12.97;66.14;102595.50;5053291;28;20052;-73
2022/07/17 02:43:20;;;;;;;5.40;1.90;;;;;;;12.95;66.38;102594.66;5057419;28;20025;-73
2022/07/17 02:45:46;;;;;;;5.15;1.80;;;;;;;12.94;66.86;102603.38;5050590;28;20479;-73
2022/07/17 02:48:11;;;;;;;4.40;2.08;;;;;;;12.94;65.67;102590.31;5054197;28;20028;-73
2022/07/17 02:50:36;;;;;;;4.53;1.83;;;;;;;12.95;65.04;102587.66;5051020;28;20040;-73
2022/07/17 02:53:02;;;;;;;6.35;2.17;;;;;;;12.95;65.58;102589.44;5053350;28;20032;-74
2022/07/17 02:55:27;;;;;;;4.35;2.20;;;;;;;12.92;65.60;102587.69;5054549;28;20405;-73
2022/07/17 02:57:53;;;;;;;5.20;2.20;;;;;;;12.89;65.66;102575.53;5055951;28;20395;-74
2022/07/17 03:00:18;;;;;;;2.65;2.20;;;;;;;12.86;65.40;102583.38;5059599;28;20023;-73
2022/07/17 03:02:44;;;;;;;2.83;1.90;;;;;;;12.81;65.87;102582.53;5053213;28;20060;-73
2022/07/17 03:05:11;;;;;;;4.53;1.80;;;;;;;12.79;66.09;102589.53;5054635;28;20181;-73
2022/07/17 03:07:36;;;;;;;2.63;1.70;;;;;;;12.72;65.00;102585.22;5060765;28;20031;-73
2022/07/17 03:10:02;;;;;;;3.35;1.95;;;;;;;12.69;65.48;102587.84;5063881;28;20036;-73
2022/07/17 03:12:27;;;;;;;4.22;1.80;;;;;;;12.63;66.00;102598.34;5059472;28;20101;-73
2022/07/17 03:14:52;;;;;;;4.50;2.30;;;;;;;12.58;66.82;102591.41;5055510;28;20049;-73
2022/07/17 03:17:18;;;;;;;3.75;1.90;;;;;;;12.55;66.16;102595.78;5054194;28;20075;-73
2022/07/17 03:19:43;;;;;;;7.03;2.13;;;;;;;12.50;66.95;102593.19;5054566;28;20025;-73
2022/07/17 03:22:08;;;;;;;3.97;1.67;;;;;;;12.49;65.96;102599.28;5057867;28;20033;-73
2022/07/17 03:24:33;;;;;;;2.55;1.58;;;;;;;12.46;66.05;102607.16;5051700;28;22226;-73
2022/07/17 03:26:59;;;;;;;3.33;1.70;;;;;;;12.38;66.41;102601.09;5057407;28;20032;-73
2022/07/17 03:29:24;;;;;;;4.22;1.70;;;;;;;12.36;67.98;102600.22;5055273;28;20067;-73
2022/07/17 03:31:49;;;;;;;3.22;1.80;;;;;;;12.35;66.78;102606.31;5061960;28;20021;-73
2022/07/17 03:34:15;;;;;;;3.40;2.10;;;;;;;12.34;67.41;102610.69;5051786;28;20144;-73
2022/07/17 03:36:40;;;;;;;6.70;2.45;;;;;;;12.28;67.89;102618.53;5057108;28;20478;-73
2022/07/17 03:39:06;;;;;;;7.50;2.53;;;;;;;12.23;68.64;102602.88;5055691;28;20029;-73
2022/07/17 03:41:31;;;;;;;6.18;2.10;;;;;;;12.20;66.92;102602.91;5057893;28;20114;-73
2022/07/17 03:43:57;;;;;;;4.43;2.08;;;;;;;12.21;66.66;102591.59;5057813;28;20047;-73
2022/07/17 03:46:22;;;;;;;4.65;1.77;;;;;;;12.19;67.21;102588.13;5055610;28;20557;-73
2022/07/17 03:48:48;;;;;;;3.85;2.00;;;;;;;12.21;67.19;102590.75;5053513;28;20021;-73
2022/07/17 03:51:13;;;;;;;3.97;1.85;;;;;;;12.21;67.47;102588.97;5058283;28;20016;-73
2022/07/17 03:53:38;;;;;;;4.22;1.92;;;;;;;12.17;67.55;102595.06;5057338;28;20467;-72
2022/07/17 03:56:04;;;;;;;3.80;2.13;;;;;;;12.12;67.64;102586.44;5057959;28;20024;-73
2022/07/17 03:58:30;;;;;;;3.47;1.65;;;;;;;12.07;67.29;102582.97;5060085;28;20020;-73
2022/07/17 04:00:55;;;;;;;2.70;1.40;;;;;;;12.07;67.82;102588.19;5059343;28;20025;-72
2022/07/17 04:03:20;;;;;;;2.90;1.70;;;;;;;12.06;68.45;102591.66;5062916;28;20052;-72
2022/07/17 04:05:46;;;;;;;4.50;1.80;;;;;;;12.08;68.89;102600.34;5053917;28;20059;-73
2022/07/17 04:08:12;;;;;;;4.43;2.30;;;;;;;12.09;68.84;102602.09;5052830;28;20029;-73
2022/07/17 04:10:38;;;;;;;4.55;2.20;;;;;;;12.08;69.15;102613.41;5054513;28;20106;-73
2022/07/17 04:13:03;;;;;;;4.25;2.45;;;;;;;12.07;69.32;102615.13;5055095;28;20020;-73
2022/07/17 04:18:12;;;;;;;5.03;2.50;;;;;;;11.99;69.00;102624.72;5058685;28;20094;-73
2022/07/17 04:20:37;;;;;;;7.55;2.53;;;;;;;11.96;69.91;102627.31;5062037;28;20032;-72
2022/07/17 04:23:04;;;;;;;3.70;2.20;;;;;;;11.97;69.03;102619.47;5061265;28;20445;-73
2022/07/17 04:25:30;;;;;;;3.58;2.10;;;;;;;12.01;68.97;102622.09;5057505;28;20017;-73
2022/07/17 04:27:55;;;;;;;4.85;2.40;;;;;;;12.04;69.40;102614.28;5058964;28;20463;-73
2022/07/17 04:30:20;;;;;;;3.10;2.00;;;;;;;12.07;68.15;102619.47;5044483;28;20568;-72
2022/07/17 04:32:45;;;;;;;3.13;2.30;;;;;;;12.11;68.15;102619.47;5055606;28;20051;-73
2022/07/17 04:35:11;;;;;;;4.35;2.38;;;;;;;12.12;68.55;102615.97;5054066;28;20442;-73
2022/07/17 04:37:36;;;;;;;6.03;2.40;;;;;;;12.14;68.80;102615.97;5056456;28;20035;-73
2022/07/17 04:40:02;;;;;;;2.95;2.10;;;;;;;12.17;69.56;102610.72;5058102;28;20031;-73
2022/07/17 04:42:27;;;;;;;4.93;2.38;;;;;;;12.21;69.58;102617.69;5059093;28;21085;-73
2022/07/17 04:44:52;;;;;;;3.75;2.50;;;;;;;12.25;69.58;102616.81;5065106;28;20027;-73
2022/07/17 04:47:17;;;;;;;5.60;2.40;;;;;;;12.31;69.54;102618.50;5057293;28;20090;-73
2022/07/17 04:49:43;;;;;;;4.50;2.60;;;;;;;12.34;69.73;102628.94;5056372;28;20025;-73
2022/07/17 04:52:08;;;;;;;8.00;2.58;;;;;;;12.37;69.63;102628.06;5039481;28;20036;-73
2022/07/17 04:54:33;;;;;;;5.72;3.13;;;;;;;12.39;69.93;102626.31;5055471;28;20930;-73
2022/07/17 04:56:58;;;;;;;7.38;2.88;;;;;;;12.43;70.23;102628.03;5055531;28;20104;-72
2022/07/17 04:59:24;;;;;;;5.82;2.85;;;;;;;12.45;70.41;102631.50;5060277;28;20032;-73
2022/07/17 05:01:49;;;;;;;4.93;2.60;;;;;;;12.50;70.72;102634.94;5062064;28;20059;-73
2022/07/17 05:04:14;;;;;;;6.78;2.72;;;;;;;12.55;70.76;102633.19;5065043;28;20083;-73
2022/07/17 05:06:39;;;;;;;6.45;3.30;;;;;;;12.60;70.64;102641.00;5058407;28;20103;-73
2022/07/17 05:09:05;;;;;;;8.30;2.85;;;;;;;12.68;70.00;102635.72;5060527;28;20040;-73
2022/07/17 05:11:30;;;;;;;5.03;2.65;;;;;;;12.72;69.55;102640.06;5058938;28;20387;-73
2022/07/17 05:13:55;;;;;;;4.50;2.67;;;;;;;12.75;69.64;102635.69;5056254;28;20063;-73
2022/07/17 05:16:21;;;;;;;6.15;2.67;;;;;;;12.80;69.42;102627.84;5059429;28;20059;-73
2022/07/17 05:18:46;;;;;;;6.47;2.90;;;;;;;12.87;69.26;102629.50;5057228;28;20400;-73
2022/07/17 05:21:14;;;;;;;6.65;2.78;;;;;;;12.93;69.68;102631.22;5068661;28;20077;-72
2022/07/17 05:23:39;;;;;;;4.05;2.67;;;;;;;12.98;70.30;102625.97;5066375;28;20020;-74
2022/07/17 05:26:05;;;;;;;6.38;3.03;;;;;;;13.04;70.67;102634.63;5063893;28;20024;-73
2022/07/17 05:28:30;;;;;;;5.43;2.45;;;;;;;13.11;70.36;102635.47;5064648;28;20031;-73
2022/07/17 05:30:55;;;;;;;4.50;2.50;;;;;;;13.18;69.94;102629.28;5060424;28;20118;-73
2022/07/17 05:33:21;;;;;;;4.50;2.88;;;;;;;13.27;69.87;102632.72;5066227;28;20059;-73
2022/07/17 05:35:49;;;;;;;8.93;2.70;;;;;;;13.31;69.31;102631.81;5066248;28;20078;-73
2022/07/17 05:38:15;;;;;;;5.35;2.50;;;;;;;13.36;70.68;102625.66;5035517;28;20075;-73
2022/07/17 05:40:41;;;;;;;3.92;2.75;;;;;;;13.43;70.26;102625.63;5060463;28;20072;-73
2022/07/17 05:43:07;;;;;;;5.47;2.78;;;;;;;13.50;70.60;102627.31;5066724;28;20039;-73
2022/07/17 05:45:32;;;;;;;6.10;2.60;;;;;;;13.60;69.31;102630.72;5063931;28;20734;-73
2022/07/17 05:47:57;;;;;;;4.25;2.60;;;;;;;13.66;69.69;102631.53;5064637;28;20032;-73
2022/07/17 05:50:22;;;;;;;5.53;2.95;;;;;;;13.75;70.58;102627.09;5066474;28;20025;-73
2022/07/17 05:52:48;;;;;;;6.18;2.90;;;;;;;13.81;70.03;102622.66;5063425;28;20025;-73
2022/07/17 05:55:13;;;;;;;5.35;2.78;;;;;;;13.90;70.19;102620.81;5069532;28;20036;-73
2022/07/17 05:57:38;;;;;;;6.20;2.80;;;;;;;13.98;67.89;102611.13;5064639;28;20483;-73
2022/07/17 06:00:05;;;;;;;4.65;2.65;;;;;;;14.08;67.47;102614.50;5063087;28;20025;-73
2022/07/17 06:02:30;;;;;;;5.22;2.35;;;;;;;14.16;66.69;102617.88;5062130;28;20032;-73
2022/07/17 06:04:55;;;;;;;5.45;2.20;;;;;;;14.26;66.08;102627.34;5067878;28;20021;-73
2022/07/17 06:07:20;;;;;;;4.35;2.30;;;;;;;14.35;65.40;102615.03;5064854;28;20021;-73
2022/07/17 06:09:46;;;;;;;3.83;2.30;;;;;;;14.45;65.49;102608.78;5064273;28;20033;-73
2022/07/17 06:12:11;;;;;;;7.13;2.10;;;;;;;14.53;65.04;102608.66;5064728;28;20431;-74
2022/07/17 06:14:36;;;;;;;3.25;2.17;;;;;;;14.63;65.08;102620.78;5069207;28;20035;-73
2022/07/17 06:17:01;;;;;;;4.88;2.28;;;;;;;14.70;65.13;102611.94;5061589;28;20029;-73
2022/07/17 06:19:27;;;;;;;6.20;2.60;;;;;;;14.79;64.71;102610.09;5065285;28;20033;-73
2022/07/17 06:21:52;;;;;;;5.32;2.40;;;;;;;14.86;66.62;102601.25;5059402;28;20504;-73
2022/07/17 06:24:17;;;;;;;5.72;2.40;;;;;;;14.94;65.52;102604.63;5053320;28;20033;-73
2022/07/17 06:26:42;;;;;;;4.10;2.13;;;;;;;14.99;66.11;102602.81;5059062;28;20426;-73
2022/07/17 06:29:08;;;;;;;4.03;1.85;;;;;;;15.03;65.92;102607.06;5057911;28;20042;-72
2022/07/17 06:31:33;;;;;;;3.95;2.10;;;;;;;15.08;64.74;102601.78;5035288;28;20936;-73
2022/07/17 06:33:58;;;;;;;5.68;2.00;;;;;;;15.14;63.52;102606.91;5056132;28;20025;-74
2022/07/17 06:36:24;;;;;;;4.00;2.10;;;;;;;15.21;64.07;102620.78;5057412;28;20471;-73
2022/07/17 06:38:49;;;;;;;5.90;2.10;;;;;;;15.27;62.86;102628.53;5054004;28;20104;-74
2022/07/17 06:41:14;;;;;;;5.47;1.90;;;;;;;15.36;62.63;102631.91;5061517;28;20037;-73
2022/07/17 06:43:39;;;;;;;5.45;2.08;;;;;;;15.45;61.94;102621.25;5059007;28;20025;-73
2022/07/17 06:46:05;;;;;;;5.57;2.15;;;;;;;15.52;61.44;102622.00;5060168;28;20044;-73
2022/07/17 06:48:30;;;;;;;5.80;2.30;;;;;;;15.57;61.28;102615.78;5055213;28;20045;-73
2022/07/17 06:50:55;;;;;;;4.55;2.20;;;;;;;15.64;61.15;102627.03;5063636;28;20567;-73
2022/07/17 06:53:21;;;;;;;6.03;2.53;;;;;;;15.68;61.85;102639.19;5059100;28;20020;-73
2022/07/17 06:55:46;;;;;;;4.40;2.17;;;;;;;15.74;61.77;102640.84;5059862;28;20498;-73
2022/07/17 06:58:12;;;;;;;4.25;1.83;;;;;;;15.79;60.15;102644.25;5051836;28;20119;-73
2022/07/17 07:00:37;;;;;;;6.45;2.40;;;;;;;15.85;60.56;102649.44;5052522;28;20456;-73
2022/07/17 07:03:03;;;;;;;5.05;2.13;;;;;;;15.86;60.86;102656.41;5054806;28;20165;-73
2022/07/17 07:05:28;;;;;;;6.15;2.10;;;;;;;15.93;60.22;102665.03;5056454;28;20028;-73
2022/07/17 07:07:53;;;;;;;7.68;2.40;;;;;;;15.96;60.81;102664.97;5054075;28;20519;-73
2022/07/17 07:10:19;;;;;;;7.55;1.90;;;;;;;15.97;60.36;102657.94;5057436;28;20043;-73
2022/07/17 07:12:44;;;;;;;3.63;1.90;;;;;;;15.97;60.72;102653.56;5054803;28;20025;-73
2022/07/17 07:15:09;;;;;;;5.57;2.10;;;;;;;16.01;61.07;102660.47;5054411;28;20028;-73
2022/07/17 07:17:35;;;;;;;7.78;2.53;;;;;;;16.04;61.32;102670.94;5054574;28;20067;-73
2022/07/17 07:20:04;;;;;;;5.53;2.55;;;;;;;16.10;61.99;102667.31;5058154;28;20438;-73
2022/07/17 07:22:30;;;;;;;6.00;2.80;;;;;;;16.18;61.35;102670.66;5055461;28;20048;-73
2022/07/17 07:24:56;;;;;;;4.80;2.55;;;;;;;16.26;60.80;102680.13;5043780;28;20025;-73
2022/07/17 07:27:21;;;;;;;3.70;2.15;;;;;;;16.29;60.72;102669.56;5058456;28;20025;-73
2022/07/17 07:29:46;;;;;;;5.30;2.58;;;;;;;16.35;59.56;102661.56;5057552;28;20081;-73
2022/07/17 07:32:11;;;;;;;7.32;2.80;;;;;;;16.42;58.83;102657.91;5066781;28;20107;-73
2022/07/17 07:34:37;;;;;;;7.15;2.50;;;;;;;16.47;58.56;102649.94;5055010;28;20459;-73
2022/07/17 07:37:02;;;;;;;5.15;2.30;;;;;;;16.51;59.22;102652.47;5056003;28;20025;-73
2022/07/17 07:39:27;;;;;;;6.57;2.70;;;;;;;16.53;58.96;102655.94;5057902;28;20028;-73
2022/07/17 07:41:53;;;;;;;6.22;2.90;;;;;;;16.54;58.30;102660.28;5053660;28;20040;-73
2022/07/17 07:44:18;;;;;;;5.45;2.35;;;;;;;16.57;58.70;102659.34;5056646;28;20085;-73
2022/07/17 07:46:43;;;;;;;8.40;2.40;;;;;;;16.61;59.08;102652.25;5059939;28;20029;-73
2022/07/17 07:49:09;;;;;;;5.97;2.72;;;;;;;16.65;58.45;102659.19;5056700;28;20460;-73
2022/07/17 07:51:34;;;;;;;5.00;2.70;;;;;;;16.70;57.70;102657.31;5054771;28;20055;-73
2022/07/17 07:53:59;;;;;;;5.47;2.33;;;;;;;16.75;57.79;102659.84;5058809;28;20040;-73
2022/07/17 07:56:25;;;;;;;6.13;2.30;;;;;;;16.80;58.17;102661.47;5058146;28;20025;-73
2022/07/17 07:58:50;;;;;;;4.60;2.35;;;;;;;16.84;57.28;102664.88;5063755;28;20113;-72
2022/07/17 08:01:15;;;;;;;4.43;2.50;;;;;;;16.88;57.86;102670.94;5059934;28;20460;-73
2022/07/17 08:03:41;;;;;;;6.07;2.53;;;;;;;16.91;57.48;102670.88;5045165;28;20054;-73
2022/07/17 08:06:06;;;;;;;6.13;2.42;;;;;;;16.94;57.84;102671.66;5056981;28;20025;-73
2022/07/17 08:08:31;;;;;;;6.18;2.67;;;;;;;17.01;56.96;102676.78;5051340;28;20404;-73
2022/07/17 08:10:56;;;;;;;6.47;2.95;;;;;;;17.08;57.92;102671.34;5057788;28;20037;-73
2022/07/17 08:13:22;;;;;;;7.32;2.25;;;;;;;17.12;56.16;102670.38;5053891;28;20033;-74
2022/07/17 08:15:47;;;;;;;3.75;1.60;;;;;;;17.16;52.44;102681.72;5058616;28;20047;-73
2022/07/17 08:18:13;;;;;;;3.40;1.50;;;;;;;17.18;53.54;102671.16;5055695;28;20069;-73
2022/07/17 08:20:38;;;;;;;4.03;1.85;;;;;;;17.24;55.81;102676.28;5055429;28;20027;-73
2022/07/17 08:23:03;;;;;;;3.85;1.48;;;;;;;17.33;55.27;102676.03;5057363;28;20430;-73
2022/07/17 08:25:29;;;;;;;4.47;1.50;;;;;;;17.40;55.97;102674.97;5060762;28;20207;-73
2022/07/17 08:27:54;;;;;;;3.53;1.40;;;;;;;17.47;55.38;102669.53;5039399;28;20025;-73
2022/07/17 08:30:20;;;;;;;3.85;1.40;;;;;;;17.54;53.86;102676.38;5054842;28;20028;-73
2022/07/17 08:32:45;;;;;;;2.65;1.25;;;;;;;17.62;53.78;102671.78;5059200;28;20437;-73
2022/07/17 08:35:11;;;;;;;2.80;1.40;;;;;;;17.68;53.30;102671.63;5056737;28;20028;-73
2022/07/17 08:37:48;;;;;;;4.13;1.60;;;;;;;17.76;53.67;102671.41;5060737;28;20146;-73
2022/07/17 08:40:19;;;;;;;3.25;1.40;;;;;;;17.79;53.27;102666.06;5056752;28;20671;-73
2022/07/17 08:42:45;;;;;;;5.15;1.50;;;;;;;17.85;54.99;102670.31;5055404;28;20051;-73
2022/07/17 08:45:11;;;;;;;4.13;1.70;;;;;;;17.88;53.19;102671.06;5055293;28;20460;-73
2022/07/17 08:47:37;;;;;;;4.40;1.50;;;;;;;17.96;53.41;102668.22;5057611;28;20028;-74
2022/07/17 08:50:03;;;;;;;3.30;1.40;;;;;;;17.98;53.52;102666.47;5058885;28;20119;-73
2022/07/17 08:52:29;;;;;;;3.83;1.60;;;;;;;18.02;54.26;102660.19;5058854;28;20027;-73
2022/07/17 08:54:54;;;;;;;5.35;1.58;;;;;;;18.07;50.80;102665.34;5059562;28;20032;-73
2022/07/17 08:57:20;;;;;;;3.45;1.50;;;;;;;18.10;53.13;102669.66;5052129;28;20028;-73
2022/07/17 08:59:47;;;;;;;3.60;1.60;;;;;;;18.10;51.19;102673.16;5054754;28;20033;-73
2022/07/17 09:02:12;;;;;;;3.42;1.40;;;;;;;18.11;50.68;102674.00;5051123;28;20033;-73
2022/07/17 09:04:39;;;;;;;4.18;1.25;;;;;;;18.13;50.99;102672.19;5058093;28;20199;-73
2022/07/17 09:07:05;;;;;;;2.80;1.25;;;;;;;18.18;50.96;102671.19;5054081;28;20032;-73
2022/07/17 09:09:33;;;;;;;3.97;1.40;;;;;;;18.20;50.48;102666.72;5057088;28;20028;-74
2022/07/17 09:11:59;;;;;;;4.13;1.45;;;;;;;18.28;52.27;102661.22;5054955;28;20561;-73
2022/07/17 09:14:38;;;;;;;4.00;1.30;;;;;;;18.34;52.00;102653.13;5059193;28;20114;-74
2022/07/17 09:17:05;;;;;;;3.83;1.30;;;;;;;18.42;49.41;102657.34;5057279;28;20024;-73
2022/07/17 09:19:41;;;;;;;3.30;1.27;;;;;;;18.46;49.31;102666.84;5054218;28;20036;-73
2022/07/17 09:22:10;;;;;;;2.83;1.35;;;;;;;18.47;48.26;102665.94;5056003;28;20074;-73
2022/07/17 09:24:44;;;;;;;5.07;1.52;;;;;;;18.52;50.75;102661.41;5057505;28;20032;-73
2022/07/17 09:27:13;;;;;;;3.95;1.33;;;;;;;18.54;50.81;102664.84;5059347;28;20032;-73
2022/07/17 09:29:54;;;;;;;5.25;1.70;;;;;;;18.62;50.00;102662.00;5060446;28;20377;-73
2022/07/17 09:32:21;;;;;;;3.47;1.38;;;;;;;18.67;50.29;102665.34;5056565;28;20067;-73
2022/07/17 09:34:48;;;;;;;4.40;1.55;;;;;;;18.75;49.56;102667.75;5056371;28;20517;-73
2022/07/17 09:37:13;;;;;;;3.83;1.60;;;;;;;18.74;48.45;102666.88;5040511;28;20367;-73
2022/07/17 09:39:39;;;;;;;3.33;1.60;;;;;;;18.72;49.68;102654.66;5057048;28;20028;-73
2022/07/17 09:42:05;;;;;;;3.53;1.30;;;;;;;18.76;49.80;102653.66;5053079;28;20044;-73
2022/07/17 09:44:30;;;;;;;3.97;1.63;;;;;;;18.83;51.09;102644.63;5056642;28;20032;-74
2022/07/17 09:46:56;;;;;;;4.47;1.60;;;;;;;18.94;50.30;102642.56;5056749;28;20120;-73
2022/07/17 09:49:26;;;;;;;3.20;1.23;;;;;;;19.02;51.86;102641.44;5057988;28;20044;-73
2022/07/17 09:51:52;;;;;;;3.00;1.40;;;;;;;19.06;48.38;102645.69;5054241;28;20045;-74
2022/07/17 09:54:23;;;;;;;3.55;1.33;;;;;;;19.12;49.94;102648.16;5039914;28;20039;-73
2022/07/17 09:56:57;;;;;;;2.80;1.13;;;;;;;19.14;47.20;102654.22;5056232;28;20418;-73
2022/07/17 09:59:22;;;;;;;3.08;1.20;;;;;;;19.18;48.02;102655.84;5057577;28;20153;-73
2022/07/17 10:01:49;;;;;;;3.00;1.50;;;;;;;19.22;46.33;102660.09;5060779;28;20029;-73
2022/07/17 10:04:16;;;;;;;4.18;1.20;;;;;;;19.23;45.34;102646.00;5060429;28;20074;-73
2022/07/17 10:06:42;;;;;;;3.58;1.38;;;;;;;19.29;48.25;102652.00;5056732;28;20051;-73
2022/07/17 10:09:07;;;;;;;4.13;1.42;;;;;;;19.32;47.29;102649.22;5056671;28;20484;-73
2022/07/17 10:11:36;;;;;;;2.88;1.58;;;;;;;19.32;45.74;102659.78;5038217;28;20043;-74
2022/07/17 10:14:12;;;;;;;3.03;1.20;;;;;;;19.32;47.89;102663.31;5057828;28;20354;-73
2022/07/17 10:16:38;;;;;;;2.45;1.00;;;;;;;19.37;50.98;102665.78;5057986;28;20028;-74
2022/07/17 10:19:17;;;;;;;4.22;1.10;;;;;;;19.43;48.52;102657.66;5062321;28;20028;-74
2022/07/17 10:22:05;;;;;;;2.60;1.13;;;;;;;19.50;47.70;102656.53;5056870;28;20032;-74
2022/07/17 10:24:30;;;;;;;2.50;1.10;;;;;;;19.55;49.01;102656.38;5060571;28;20471;-74
2022/07/17 10:26:56;;;;;;;2.58;0.95;;;;;;;19.57;43.37;102657.16;5058059;28;20044;-73
2022/07/17 10:29:39;;;;;;;2.38;0.90;;;;;;;19.61;46.70;102653.50;5052377;28;20025;-73
2022/07/17 10:32:14;;;;;;;4.10;1.13;;;;;;;19.64;44.51;102668.41;5056679;28;20115;-73
2022/07/17 10:34:45;;;;;;;2.65;0.90;;;;;;;19.66;45.94;102650.69;5054707;28;20032;-73
2022/07/17 10:37:15;;;;;;;2.60;1.20;;;;;;;19.69;45.32;102650.59;5056423;28;20063;-73
2022/07/17 10:40:04;;;;;;;3.40;1.23;;;;;;;19.71;44.62;102648.78;5056719;28;20551;-73
2022/07/17 10:43:07;;;;;;;4.18;0.90;;;;;;;19.76;45.14;102654.75;5055409;28;20112;-73
2022/07/17 10:45:43;;;;;;;1.88;0.93;;;;;;;19.80;44.73;102647.56;5055370;28;20039;-73
2022/07/17 10:48:18;;;;;;;2.83;1.15;;;;;;;19.83;43.35;102648.31;5049379;28;20039;-74
2022/07/17 10:50:55;;;;;;;5.28;1.10;;;;;;;19.85;44.27;102651.78;5048555;28;20399;-73
2022/07/17 10:53:30;;;;;;;3.25;0.90;;;;;;;19.87;44.92;102649.13;5053180;28;20032;-74
2022/07/17 10:55:57;;;;;;;4.90;1.17;;;;;;;19.89;43.78;102647.28;5055580;28;20118;-74
2022/07/17 10:58:28;;;;;;;4.57;1.40;;;;;;;19.94;44.25;102652.41;5057935;28;20067;-74
2022/07/17 11:00:57;;;;;;;4.15;1.10;;;;;;;19.99;42.66;102653.06;5053688;28;20034;-73
2022/07/17 11:03:23;;;;;;;3.60;1.20;;;;;;;20.01;43.81;102641.56;5049150;28;20040;-74
2022/07/17 11:05:48;;;;;;;3.53;1.02;;;;;;;20.09;45.36;102649.19;5051892;28;20028;-73
2022/07/17 11:08:14;;;;;;;2.40;1.10;;;;;;;;;;5055543;28;20497;-74
2022/07/17 11:10:40;;;;;;;4.30;1.17;;;;;;;20.22;43.51;102646.09;5057997;28;20132;-74
2022/07/17 11:13:15;;;;;;;4.13;1.40;;;;;;;20.27;44.36;102646.78;5060964;28;20024;-75
2022/07/17 11:15:48;;;;;;;3.15;1.27;;;;;;;20.31;46.64;102637.81;5054434;28;20037;-74
2022/07/17 11:18:19;;;;;;;2.90;1.10;;;;;;;20.35;44.94;102641.19;5053725;28;20064;-75
2022/07/17 11:20:59;;;;;;;5.03;1.48;;;;;;;20.40;46.00;102636.59;5053258;28;20130;-74
2022/07/17 11:23:29;;;;;;;3.92;1.27;;;;;;;20.46;43.99;102631.94;5055558;28;20120;-75
2022/07/17 11:25:59;;;;;;;4.88;1.10;;;;;;;20.54;43.98;102642.22;5039098;28;20040;-75